Terminal Aerodrome Forecast
Issued by NWS

Home | Current Version | Previous Version | Text Only | Print | Product List | Glossary On
Versions: 1 2 3 4 5 6 7 8 9 10 11 12 13 14
671
FTUS43 KDLH 242324
TAFBRD
TAF
KBRD 242324Z 2500/2524 35011G17KT P6SM SKC
     FM250200 36004KT P6SM SKC
     FM251400 23006KT P6SM SCT250
     FM251800 23008G15KT P6SM SCT250=

USA.gov is the U.S. government's official web portal to all federal, state and local government web resources and services.